sensor_id;sensor_type;location;lat;lon;timestamp;temperature;humidity
23556;DHT22;11956;53.184;8.578;2023-03-01T00:01:54;-1.70;99.90
23556;DHT22;11956;53.184;8.578;2023-03-01T00:04:55;-1.70;99.90
23556;DHT22;11956;53.184;8.578;2023-03-01T00:07:56;-1.80;99.90
23556;DHT22;11956;53.184;8.578;2023-03-01T00:11:05;-1.70;99.90
23556;DHT22;11956;53.184;8.578;2023-03-01T00:14:17;-1.80;99.90
23556;DHT22;11956;53.184;8.578;2023-03-01T00:17:18;-1.80;99.90
23556;DHT22;11956;53.184;8.578;2023-03-01T00:20:18;-1.80;99.90
23556;DHT22;11956;53.184;8.578;2023-03-01T00:23:20;-1.90;99.90
23556;DHT22;11956;53.184;8.578;2023-03-01T00:26:23;-1.90;99.90
23556;DHT22;11956;53.184;8.578;2023-03-01T00:29:25;-1.90;99.90
23556;DHT22;11956;53.184;8.578;2023-03-01T00:32:26;-1.90;99.90
23556;DHT22;11956;53.184;8.578;2023-03-01T00:35:26;-1.90;99.90
23556;DHT22;11956;53.184;8.578;2023-03-01T00:38:27;-2.00;99.90
23556;DHT22;11956;53.184;8.578;2023-03-01T00:41:28;-1.90;99.90
23556;DHT22;11956;53.184;8.578;2023-03-01T00:44:29;-2.00;99.90
23556;DHT22;11956;53.184;8.578;2023-03-01T00:47:30;-2.00;99.90
23556;DHT22;11956;53.184;8.578;2023-03-01T00:50:31;-1.90;99.90
23556;DHT22;11956;53.184;8.578;2023-03-01T00:53:32;-2.00;99.90
23556;DHT22;11956;53.184;8.578;2023-03-01T00:56:33;-2.00;99.90
23556;DHT22;11956;53.184;8.578;2023-03-01T00:59:35;-2.00;99.90
23556;DHT22;11956;53.184;8.578;2023-03-01T01:02:35;-2.10;99.90
23556;DHT22;11956;53.184;8.578;2023-03-01T01:05:36;-2.10;99.90
23556;DHT22;11956;53.184;8.578;2023-03-01T01:08:37;-2.20;99.90
23556;DHT22;11956;53.184;8.578;2023-03-01T01:11:38;-2.20;99.90
23556;DHT22;11956;53.184;8.578;2023-03-01T01:14:39;-2.10;99.90
23556;DHT22;11956;53.184;8.578;2023-03-01T01:17:40;-2.10;99.90
23556;DHT22;11956;53.184;8.578;2023-03-01T01:20:41;-2.10;99.90
23556;DHT22;11956;53.184;8.578;2023-03-01T01:23:43;-2.10;99.90
23556;DHT22;11956;53.184;8.578;2023-03-01T01:26:45;-2.10;99.90
23556;DHT22;11956;53.184;8.578;2023-03-01T01:29:47;-2.10;99.90
23556;DHT22;11956;53.184;8.578;2023-03-01T01:32:47;-2.10;99.90
23556;DHT22;11956;53.184;8.578;2023-03-01T01:35:48;-2.10;99.90
23556;DHT22;11956;53.184;8.578;2023-03-01T01:38:49;-2.10;99.90
23556;DHT22;11956;53.184;8.578;2023-03-01T01:41:50;-2.00;99.90
23556;DHT22;11956;53.184;8.578;2023-03-01T01:48:45;-2.10;99.90
23556;DHT22;11956;53.184;8.578;2023-03-01T01:51:51;-2.10;99.90
23556;DHT22;11956;53.184;8.578;2023-03-01T01:55:11;-2.10;99.90
23556;DHT22;11956;53.184;8.578;2023-03-01T01:58:18;-2.20;99.90
23556;DHT22;11956;53.184;8.578;2023-03-01T02:01:20;-2.20;99.90
23556;DHT22;11956;53.184;8.578;2023-03-01T02:04:22;-2.20;99.90
23556;DHT22;11956;53.184;8.578;2023-03-01T02:07:23;-2.30;99.90
23556;DHT22;11956;53.184;8.578;2023-03-01T02:10:26;-2.30;99.90
23556;DHT22;11956;53.184;8.578;2023-03-01T02:13:28;-2.30;99.90
23556;DHT22;11956;53.184;8.578;2023-03-01T02:16:31;-2.30;99.90
23556;DHT22;11956;53.184;8.578;2023-03-01T02:22:54;-2.30;99.90
23556;DHT22;11956;53.184;8.578;2023-03-01T02:29:24;-2.30;99.90
23556;DHT22;11956;53.184;8.578;2023-03-01T02:32:26;-2.30;99.90
23556;DHT22;11956;53.184;8.578;2023-03-01T02:35:27;-2.40;99.90
23556;DHT22;11956;53.184;8.578;2023-03-01T02:38:28;-2.40;99.90
23556;DHT22;11956;53.184;8.578;2023-03-01T02:41:35;-2.40;99.90
23556;DHT22;11956;53.184;8.578;2023-03-01T02:44:36;-2.40;99.90
23556;DHT22;11956;53.184;8.578;2023-03-01T02:47:37;-2.40;99.90
23556;DHT22;11956;53.184;8.578;2023-03-01T02:50:45;-2.40;99.90
23556;DHT22;11956;53.184;8.578;2023-03-01T02:54:25;-2.40;99.90
23556;DHT22;11956;53.184;8.578;2023-03-01T02:57:31;-2.40;99.90
23556;DHT22;11956;53.184;8.578;2023-03-01T03:00:35;-2.50;99.90
23556;DHT22;11956;53.184;8.578;2023-03-01T03:03:41;-2.50;99.90
23556;DHT22;11956;53.184;8.578;2023-03-01T03:06:44;-2.50;99.90
23556;DHT22;11956;53.184;8.578;2023-03-01T03:09:45;-2.50;99.90
23556;DHT22;11956;53.184;8.578;2023-03-01T03:12:53;-2.60;99.90
23556;DHT22;11956;53.184;8.578;2023-03-01T03:15:56;-2.60;99.90
23556;DHT22;11956;53.184;8.578;2023-03-01T03:18:57;-2.60;99.90
23556;DHT22;11956;53.184;8.578;2023-03-01T03:22:05;-2.60;99.90
23556;DHT22;11956;53.184;8.578;2023-03-01T03:25:09;-2.60;99.90
23556;DHT22;11956;53.184;8.578;2023-03-01T03:28:10;-2.60;99.90
23556;DHT22;11956;53.184;8.578;2023-03-01T03:31:11;-2.60;99.90
23556;DHT22;11956;53.184;8.578;2023-03-01T03:34:12;-2.60;99.90
23556;DHT22;11956;53.184;8.578;2023-03-01T03:37:18;-2.60;99.90
23556;DHT22;11956;53.184;8.578;2023-03-01T03:40:42;-2.60;99.90
23556;DHT22;11956;53.184;8.578;2023-03-01T03:43:44;-2.50;99.90
23556;DHT22;11956;53.184;8.578;2023-03-01T03:46:46;-2.50;99.90
23556;DHT22;11956;53.184;8.578;2023-03-01T03:49:47;-2.60;99.90
23556;DHT22;11956;53.184;8.578;2023-03-01T03:52:47;-2.60;99.90
23556;DHT22;11956;53.184;8.578;2023-03-01T03:55:48;-2.60;99.90
23556;DHT22;11956;53.184;8.578;2023-03-01T03:58:52;-2.60;99.90
23556;DHT22;11956;53.184;8.578;2023-03-01T04:01:53;-2.60;99.90
23556;DHT22;11956;53.184;8.578;2023-03-01T04:04:54;-2.60;99.90
23556;DHT22;11956;53.184;8.578;2023-03-01T04:07:55;-2.70;99.90
23556;DHT22;11956;53.184;8.578;2023-03-01T04:11:04;-2.60;99.90
23556;DHT22;11956;53.184;8.578;2023-03-01T04:14:24;-2.60;99.90
23556;DHT22;11956;53.184;8.578;2023-03-01T04:17:25;-2.60;99.90
23556;DHT22;11956;53.184;8.578;2023-03-01T04:20:31;-2.60;99.90
23556;DHT22;11956;53.184;8.578;2023-03-01T04:23:35;-2.70;99.90
23556;DHT22;11956;53.184;8.578;2023-03-01T04:26:36;-2.70;99.90
23556;DHT22;11956;53.184;8.578;2023-03-01T04:29:37;-2.70;99.90
23556;DHT22;11956;53.184;8.578;2023-03-01T04:32:38;-2.70;99.90
23556;DHT22;11956;53.184;8.578;2023-03-01T04:35:39;-2.70;99.90
23556;DHT22;11956;53.184;8.578;2023-03-01T04:38:41;-2.70;99.90
23556;DHT22;11956;53.184;8.578;2023-03-01T04:41:42;-2.70;99.90
23556;DHT22;11956;53.184;8.578;2023-03-01T04:44:46;-2.70;99.90
23556;DHT22;11956;53.184;8.578;2023-03-01T04:47:47;-2.80;99.90
23556;DHT22;11956;53.184;8.578;2023-03-01T04:50:48;-2.70;99.90
23556;DHT22;11956;53.184;8.578;2023-03-01T04:53:49;-2.80;99.90
23556;DHT22;11956;53.184;8.578;2023-03-01T04:56:50;-2.70;99.90
23556;DHT22;11956;53.184;8.578;2023-03-01T04:59:51;-2.80;99.90
23556;DHT22;11956;53.184;8.578;2023-03-01T05:02:57;-2.80;99.90
23556;DHT22;11956;53.184;8.578;2023-03-01T05:06:00;-2.80;99.90
23556;DHT22;11956;53.184;8.578;2023-03-01T05:09:01;-2.80;99.90
23556;DHT22;11956;53.184;8.578;2023-03-01T05:12:02;-2.90;99.90
23556;DHT22;11956;53.184;8.578;2023-03-01T05:15:04;-2.80;99.90
23556;DHT22;11956;53.184;8.578;2023-03-01T05:18:07;-2.80;99.90
23556;DHT22;11956;53.184;8.578;2023-03-01T05:21:13;-2.80;99.90
23556;DHT22;11956;53.184;8.578;2023-03-01T05:24:16;-2.80;99.90
23556;DHT22;11956;53.184;8.578;2023-03-01T05:27:17;-2.90;99.90
23556;DHT22;11956;53.184;8.578;2023-03-01T05:30:18;-2.90;99.90
23556;DHT22;11956;53.184;8.578;2023-03-01T05:33:19;-2.90;99.90
23556;DHT22;11956;53.184;8.578;2023-03-01T05:36:22;-2.90;99.90
23556;DHT22;11956;53.184;8.578;2023-03-01T05:39:25;-2.90;99.90
23556;DHT22;11956;53.184;8.578;2023-03-01T05:42:27;-2.90;99.90
23556;DHT22;11956;53.184;8.578;2023-03-01T05:45:27;-2.90;99.90
23556;DHT22;11956;53.184;8.578;2023-03-01T05:48:28;-2.90;99.90
23556;DHT22;11956;53.184;8.578;2023-03-01T05:51:29;-2.90;99.90
23556;DHT22;11956;53.184;8.578;2023-03-01T05:54:30;-2.90;99.90
23556;DHT22;11956;53.184;8.578;2023-03-01T05:57:31;-2.90;99.90
23556;DHT22;11956;53.184;8.578;2023-03-01T06:00:33;-2.90;99.90
23556;DHT22;11956;53.184;8.578;2023-03-01T06:03:35;-2.90;99.90
23556;DHT22;11956;53.184;8.578;2023-03-01T06:06:37;-2.80;99.90
23556;DHT22;11956;53.184;8.578;2023-03-01T06:09:38;-2.80;99.90
23556;DHT22;11956;53.184;8.578;2023-03-01T06:12:40;-2.80;99.90
23556;DHT22;11956;53.184;8.578;2023-03-01T06:15:42;-2.90;99.90
23556;DHT22;11956;53.184;8.578;2023-03-01T06:18:43;-2.80;99.90
23556;DHT22;11956;53.184;8.578;2023-03-01T06:21:44;-2.80;99.90
23556;DHT22;11956;53.184;8.578;2023-03-01T06:24:45;-2.80;99.90
23556;DHT22;11956;53.184;8.578;2023-03-01T06:27:46;-2.70;99.90
23556;DHT22;11956;53.184;8.578;2023-03-01T06:30:47;-2.70;99.90
23556;DHT22;11956;53.184;8.578;2023-03-01T06:33:48;-2.70;99.90
23556;DHT22;11956;53.184;8.578;2023-03-01T06:36:49;-2.70;99.90
23556;DHT22;11956;53.184;8.578;2023-03-01T06:39:50;-2.60;99.90
23556;DHT22;11956;53.184;8.578;2023-03-01T06:42:51;-2.60;99.90
23556;DHT22;11956;53.184;8.578;2023-03-01T06:45:52;-2.50;99.90
23556;DHT22;11956;53.184;8.578;2023-03-01T06:48:52;-2.30;99.90
23556;DHT22;11956;53.184;8.578;2023-03-01T06:51:53;-2.20;99.90
23556;DHT22;11956;53.184;8.578;2023-03-01T06:54:55;-2.00;99.90
23556;DHT22;11956;53.184;8.578;2023-03-01T06:57:57;-1.80;99.90
23556;DHT22;11956;53.184;8.578;2023-03-01T07:00:59;-1.70;99.90
23556;DHT22;11956;53.184;8.578;2023-03-01T07:04:00;-1.60;99.90
23556;DHT22;11956;53.184;8.578;2023-03-01T07:07:01;-1.50;99.90
23556;DHT22;11956;53.184;8.578;2023-03-01T07:10:02;-1.40;99.90
23556;DHT22;11956;53.184;8.578;2023-03-01T07:13:03;-1.30;99.90
23556;DHT22;11956;53.184;8.578;2023-03-01T07:16:07;-1.10;99.90
23556;DHT22;11956;53.184;8.578;2023-03-01T07:19:08;-1.10;99.90
23556;DHT22;11956;53.184;8.578;2023-03-01T07:22:09;-1.10;99.90
23556;DHT22;11956;53.184;8.578;2023-03-01T07:25:10;-1.00;99.90
23556;DHT22;11956;53.184;8.578;2023-03-01T07:28:11;-0.90;99.90
23556;DHT22;11956;53.184;8.578;2023-03-01T07:31:12;-0.80;99.90
23556;DHT22;11956;53.184;8.578;2023-03-01T07:34:13;-0.70;99.90
23556;DHT22;11956;53.184;8.578;2023-03-01T07:37:14;-0.50;99.90
23556;DHT22;11956;53.184;8.578;2023-03-01T07:40:15;-0.30;99.90
23556;DHT22;11956;53.184;8.578;2023-03-01T07:43:16;-0.10;99.90
23556;DHT22;11956;53.184;8.578;2023-03-01T07:46:17;0.10;99.90
23556;DHT22;11956;53.184;8.578;2023-03-01T07:49:19;0.30;99.90
23556;DHT22;11956;53.184;8.578;2023-03-01T07:52:20;0.40;99.90
23556;DHT22;11956;53.184;8.578;2023-03-01T07:55:21;0.70;99.90
23556;DHT22;11956;53.184;8.578;2023-03-01T07:58:22;1.00;99.90
23556;DHT22;11956;53.184;8.578;2023-03-01T08:01:23;1.20;99.90
23556;DHT22;11956;53.184;8.578;2023-03-01T08:04:24;1.30;99.90
23556;DHT22;11956;53.184;8.578;2023-03-01T08:07:27;2.30;99.90
23556;DHT22;11956;53.184;8.578;2023-03-01T08:10:28;2.90;99.90
23556;DHT22;11956;53.184;8.578;2023-03-01T08:13:30;3.20;99.90
23556;DHT22;11956;53.184;8.578;2023-03-01T08:16:31;4.10;99.90
23556;DHT22;11956;53.184;8.578;2023-03-01T08:19:33;5.80;99.90
23556;DHT22;11956;53.184;8.578;2023-03-01T08:22:35;6.10;99.90
23556;DHT22;11956;53.184;8.578;2023-03-01T08:25:36;7.00;99.90
23556;DHT22;11956;53.184;8.578;2023-03-01T08:28:37;8.80;99.90
23556;DHT22;11956;53.184;8.578;2023-03-01T08:31:39;10.60;99.90
23556;DHT22;11956;53.184;8.578;2023-03-01T08:34:40;11.90;99.60
23556;DHT22;11956;53.184;8.578;2023-03-01T08:37:41;12.10;97.30
23556;DHT22;11956;53.184;8.578;2023-03-01T08:40:42;11.90;96.50
23556;DHT22;11956;53.184;8.578;2023-03-01T08:43:44;11.60;96.80
23556;DHT22;11956;53.184;8.578;2023-03-01T08:46:45;11.50;97.00
23556;DHT22;11956;53.184;8.578;2023-03-01T08:49:50;10.90;96.70
23556;DHT22;11956;53.184;8.578;2023-03-01T08:52:51;10.30;97.50
23556;DHT22;11956;53.184;8.578;2023-03-01T08:55:52;10.00;98.70
23556;DHT22;11956;53.184;8.578;2023-03-01T08:58:53;10.20;98.70
23556;DHT22;11956;53.184;8.578;2023-03-01T09:01:54;10.20;97.90
23556;DHT22;11956;53.184;8.578;2023-03-01T09:04:54;10.60;97.20
23556;DHT22;11956;53.184;8.578;2023-03-01T09:07:57;10.80;95.90
23556;DHT22;11956;53.184;8.578;2023-03-01T09:10:58;10.50;95.60
23556;DHT22;11956;53.184;8.578;2023-03-01T09:14:05;10.80;95.70
23556;DHT22;11956;53.184;8.578;2023-03-01T09:17:06;11.80;94.80
23556;DHT22;11956;53.184;8.578;2023-03-01T09:20:07;13.10;93.10
23556;DHT22;11956;53.184;8.578;2023-03-01T09:23:08;14.20;90.60
23556;DHT22;11956;53.184;8.578;2023-03-01T09:26:14;14.20;90.20
23556;DHT22;11956;53.184;8.578;2023-03-01T09:29:17;13.80;90.10
23556;DHT22;11956;53.184;8.578;2023-03-01T09:32:18;13.80;89.70
23556;DHT22;11956;53.184;8.578;2023-03-01T09:35:18;13.80;89.20
23556;DHT22;11956;53.184;8.578;2023-03-01T09:38:20;13.50;88.60
23556;DHT22;11956;53.184;8.578;2023-03-01T09:45:03;11.80;90.80
23556;DHT22;11956;53.184;8.578;2023-03-01T09:48:18;11.20;91.80
23556;DHT22;11956;53.184;8.578;2023-03-01T09:51:30;11.40;91.70
23556;DHT22;11956;53.184;8.578;2023-03-01T09:54:32;13.40;87.80
23556;DHT22;11956;53.184;8.578;2023-03-01T09:57:43;15.40;82.40
23556;DHT22;11956;53.184;8.578;2023-03-01T10:00:50;17.20;76.20
23556;DHT22;11956;53.184;8.578;2023-03-01T10:11:39;18.70;65.80
23556;DHT22;11956;53.184;8.578;2023-03-01T10:15:14;19.70;61.80
23556;DHT22;11956;53.184;8.578;2023-03-01T10:18:20;18.50;60.50
23556;DHT22;11956;53.184;8.578;2023-03-01T10:21:23;18.80;61.60
23556;DHT22;11956;53.184;8.578;2023-03-01T10:24:24;20.00;58.00
23556;DHT22;11956;53.184;8.578;2023-03-01T10:27:34;20.50;55.70
23556;DHT22;11956;53.184;8.578;2023-03-01T10:30:40;20.90;54.80
23556;DHT22;11956;53.184;8.578;2023-03-01T10:33:43;21.80;52.60
23556;DHT22;11956;53.184;8.578;2023-03-01T10:36:48;21.90;50.70
23556;DHT22;11956;53.184;8.578;2023-03-01T10:42:58;22.10;50.50
23556;DHT22;11956;53.184;8.578;2023-03-01T10:46:01;20.90;53.30
23556;DHT22;11956;53.184;8.578;2023-03-01T10:52:24;18.10;58.70
23556;DHT22;11956;53.184;8.578;2023-03-01T10:55:37;15.80;63.10
23556;DHT22;11956;53.184;8.578;2023-03-01T10:58:41;12.80;74.40
23556;DHT22;11956;53.184;8.578;2023-03-01T11:05:21;10.70;91.30
23556;DHT22;11956;53.184;8.578;2023-03-01T11:08:40;9.30;96.40
23556;DHT22;11956;53.184;8.578;2023-03-01T11:11:45;9.00;98.30
23556;DHT22;11956;53.184;8.578;2023-03-01T11:14:51;8.80;99.90
23556;DHT22;11956;53.184;8.578;2023-03-01T11:17:56;8.90;99.90
23556;DHT22;11956;53.184;8.578;2023-03-01T11:20:58;8.40;99.90
23556;DHT22;11956;53.184;8.578;2023-03-01T11:24:02;8.30;99.90
23556;DHT22;11956;53.184;8.578;2023-03-01T11:27:19;8.20;99.90
23556;DHT22;11956;53.184;8.578;2023-03-01T11:30:39;8.40;99.90
23556;DHT22;11956;53.184;8.578;2023-03-01T11:33:51;8.30;99.90
23556;DHT22;11956;53.184;8.578;2023-03-01T11:37:07;8.10;99.90
23556;DHT22;11956;53.184;8.578;2023-03-01T11:40:33;8.40;99.90
23556;DHT22;11956;53.184;8.578;2023-03-01T11:50:47;8.40;99.90
23556;DHT22;11956;53.184;8.578;2023-03-01T11:54:00;8.40;99.90
23556;DHT22;11956;53.184;8.578;2023-03-01T12:01:06;8.20;99.90
23556;DHT22;11956;53.184;8.578;2023-03-01T12:17:49;8.40;99.90
23556;DHT22;11956;53.184;8.578;2023-03-01T12:21:20;8.20;99.90
23556;DHT22;11956;53.184;8.578;2023-03-01T12:24:37;8.00;99.90
23556;DHT22;11956;53.184;8.578;2023-03-01T12:28:01;8.20;99.90
23556;DHT22;11956;53.184;8.578;2023-03-01T12:31:34;8.30;99.90
23556;DHT22;11956;53.184;8.578;2023-03-01T12:38:48;8.40;99.90
23556;DHT22;11956;53.184;8.578;2023-03-01T12:42:04;8.30;99.90
23556;DHT22;11956;53.184;8.578;2023-03-01T12:49:21;7.90;99.90
23556;DHT22;11956;53.184;8.578;2023-03-01T12:53:13;8.00;99.90
23556;DHT22;11956;53.184;8.578;2023-03-01T12:56:20;8.00;99.90
23556;DHT22;11956;53.184;8.578;2023-03-01T12:59:37;7.90;99.90
23556;DHT22;11956;53.184;8.578;2023-03-01T13:02:45;7.70;99.90
23556;DHT22;11956;53.184;8.578;2023-03-01T13:06:32;7.50;99.90
23556;DHT22;11956;53.184;8.578;2023-03-01T13:13:14;7.60;99.90
23556;DHT22;11956;53.184;8.578;2023-03-01T13:19:29;8.00;99.90
23556;DHT22;11956;53.184;8.578;2023-03-01T13:22:33;8.00;99.90
23556;DHT22;11956;53.184;8.578;2023-03-01T13:25:34;8.10;99.90
23556;DHT22;11956;53.184;8.578;2023-03-01T13:34:44;8.20;99.90
23556;DHT22;11956;53.184;8.578;2023-03-01T13:37:47;8.20;99.90
23556;DHT22;11956;53.184;8.578;2023-03-01T13:43:52;8.30;99.90
23556;DHT22;11956;53.184;8.578;2023-03-01T13:50:21;8.40;99.90
23556;DHT22;11956;53.184;8.578;2023-03-01T13:53:27;8.40;99.90
23556;DHT22;11956;53.184;8.578;2023-03-01T13:56:37;8.50;99.90
23556;DHT22;11956;53.184;8.578;2023-03-01T13:59:46;8.50;99.90
23556;DHT22;11956;53.184;8.578;2023-03-01T14:03:00;8.50;99.90
23556;DHT22;11956;53.184;8.578;2023-03-01T14:06:06;8.20;99.90
23556;DHT22;11956;53.184;8.578;2023-03-01T14:09:24;8.20;99.90
23556;DHT22;11956;53.184;8.578;2023-03-01T14:12:49;8.20;99.90
23556;DHT22;11956;53.184;8.578;2023-03-01T14:19:30;8.40;99.90
23556;DHT22;11956;53.184;8.578;2023-03-01T14:22:33;8.40;99.90
23556;DHT22;11956;53.184;8.578;2023-03-01T14:25:36;8.30;99.90
23556;DHT22;11956;53.184;8.578;2023-03-01T14:28:39;8.40;99.90
23556;DHT22;11956;53.184;8.578;2023-03-01T14:31:42;8.50;99.90
23556;DHT22;11956;53.184;8.578;2023-03-01T14:34:45;8.50;99.90
23556;DHT22;11956;53.184;8.578;2023-03-01T14:37:48;8.50;99.90
23556;DHT22;11956;53.184;8.578;2023-03-01T14:40:53;8.40;99.90
23556;DHT22;11956;53.184;8.578;2023-03-01T14:44:03;8.50;99.90
23556;DHT22;11956;53.184;8.578;2023-03-01T14:47:10;8.40;99.90
23556;DHT22;11956;53.184;8.578;2023-03-01T14:50:28;8.40;99.90
23556;DHT22;11956;53.184;8.578;2023-03-01T14:53:31;8.50;99.90
23556;DHT22;11956;53.184;8.578;2023-03-01T14:56:44;8.50;99.90
23556;DHT22;11956;53.184;8.578;2023-03-01T14:59:46;8.50;99.90
23556;DHT22;11956;53.184;8.578;2023-03-01T15:02:50;8.40;99.90
23556;DHT22;11956;53.184;8.578;2023-03-01T15:05:53;8.40;99.90
23556;DHT22;11956;53.184;8.578;2023-03-01T15:08:54;8.40;99.90
23556;DHT22;11956;53.184;8.578;2023-03-01T15:11:57;8.40;99.90
23556;DHT22;11956;53.184;8.578;2023-03-01T15:14:58;8.40;99.90
23556;DHT22;11956;53.184;8.578;2023-03-01T15:18:15;8.40;99.90
23556;DHT22;11956;53.184;8.578;2023-03-01T15:21:21;8.40;99.90
23556;DHT22;11956;53.184;8.578;2023-03-01T15:24:25;8.40;99.90
23556;DHT22;11956;53.184;8.578;2023-03-01T15:27:27;8.30;99.90
23556;DHT22;11956;53.184;8.578;2023-03-01T15:30:35;8.30;99.90
23556;DHT22;11956;53.184;8.578;2023-03-01T15:33:38;8.20;99.90
23556;DHT22;11956;53.184;8.578;2023-03-01T15:36:43;8.10;99.90
23556;DHT22;11956;53.184;8.578;2023-03-01T15:39:56;8.10;99.90
23556;DHT22;11956;53.184;8.578;2023-03-01T15:42:59;8.00;99.90
23556;DHT22;11956;53.184;8.578;2023-03-01T15:46:00;8.00;99.90
23556;DHT22;11956;53.184;8.578;2023-03-01T15:49:03;8.00;99.90
23556;DHT22;11956;53.184;8.578;2023-03-01T15:52:13;7.90;99.90
23556;DHT22;11956;53.184;8.578;2023-03-01T15:55:26;7.80;99.90
23556;DHT22;11956;53.184;8.578;2023-03-01T15:58:29;7.80;99.90
23556;DHT22;11956;53.184;8.578;2023-03-01T16:01:30;7.70;99.90
23556;DHT22;11956;53.184;8.578;2023-03-01T16:04:34;7.80;99.90
23556;DHT22;11956;53.184;8.578;2023-03-01T16:07:35;7.70;99.90
23556;DHT22;11956;53.184;8.578;2023-03-01T16:10:41;7.70;99.90
23556;DHT22;11956;53.184;8.578;2023-03-01T16:13:44;7.60;99.90
23556;DHT22;11956;53.184;8.578;2023-03-01T16:16:46;7.60;99.90
23556;DHT22;11956;53.184;8.578;2023-03-01T16:19:48;7.60;99.90
23556;DHT22;11956;53.184;8.578;2023-03-01T16:22:49;7.60;99.90
23556;DHT22;11956;53.184;8.578;2023-03-01T16:25:51;7.50;99.90
23556;DHT22;11956;53.184;8.578;2023-03-01T16:28:54;7.50;99.90
23556;DHT22;11956;53.184;8.578;2023-03-01T16:31:56;7.40;99.90
23556;DHT22;11956;53.184;8.578;2023-03-01T16:35:01;7.40;99.90
23556;DHT22;11956;53.184;8.578;2023-03-01T16:38:02;7.30;99.90
23556;DHT22;11956;53.184;8.578;2023-03-01T16:41:04;7.30;99.90
23556;DHT22;11956;53.184;8.578;2023-03-01T16:44:05;7.10;99.90
23556;DHT22;11956;53.184;8.578;2023-03-01T16:47:06;7.00;99.90
23556;DHT22;11956;53.184;8.578;2023-03-01T16:50:07;7.00;99.90
23556;DHT22;11956;53.184;8.578;2023-03-01T16:53:09;6.90;99.90
23556;DHT22;11956;53.184;8.578;2023-03-01T16:56:12;6.70;99.90
23556;DHT22;11956;53.184;8.578;2023-03-01T16:59:13;6.70;99.90
23556;DHT22;11956;53.184;8.578;2023-03-01T17:02:14;6.60;99.90
23556;DHT22;11956;53.184;8.578;2023-03-01T17:05:20;6.50;99.90
23556;DHT22;11956;53.184;8.578;2023-03-01T17:08:24;6.40;99.90
23556;DHT22;11956;53.184;8.578;2023-03-01T17:11:25;6.40;99.90
23556;DHT22;11956;53.184;8.578;2023-03-01T17:14:26;6.20;99.90
23556;DHT22;11956;53.184;8.578;2023-03-01T17:17:27;6.20;99.90
23556;DHT22;11956;53.184;8.578;2023-03-01T17:20:28;6.10;99.90
23556;DHT22;11956;53.184;8.578;2023-03-01T17:23:29;6.00;99.90
23556;DHT22;11956;53.184;8.578;2023-03-01T17:26:31;5.90;99.90
23556;DHT22;11956;53.184;8.578;2023-03-01T17:29:32;5.90;99.90
23556;DHT22;11956;53.184;8.578;2023-03-01T17:32:33;5.80;99.90
23556;DHT22;11956;53.184;8.578;2023-03-01T17:35:33;5.80;99.90
23556;DHT22;11956;53.184;8.578;2023-03-01T17:38:36;5.70;99.90
23556;DHT22;11956;53.184;8.578;2023-03-01T17:41:37;5.70;99.90
23556;DHT22;11956;53.184;8.578;2023-03-01T17:44:38;5.60;99.90
23556;DHT22;11956;53.184;8.578;2023-03-01T17:47:39;5.60;99.90
23556;DHT22;11956;53.184;8.578;2023-03-01T17:50:40;5.50;99.90
23556;DHT22;11956;53.184;8.578;2023-03-01T17:53:41;5.30;99.90
23556;DHT22;11956;53.184;8.578;2023-03-01T17:56:42;5.30;99.90
23556;DHT22;11956;53.184;8.578;2023-03-01T17:59:43;5.20;99.90
23556;DHT22;11956;53.184;8.578;2023-03-01T18:02:44;5.10;99.90
23556;DHT22;11956;53.184;8.578;2023-03-01T18:05:45;5.00;99.90
23556;DHT22;11956;53.184;8.578;2023-03-01T18:08:46;5.00;99.90
23556;DHT22;11956;53.184;8.578;2023-03-01T18:11:48;5.00;99.90
23556;DHT22;11956;53.184;8.578;2023-03-01T18:14:49;4.90;99.90
23556;DHT22;11956;53.184;8.578;2023-03-01T18:17:53;4.80;99.90
23556;DHT22;11956;53.184;8.578;2023-03-01T18:20:55;4.70;99.90
23556;DHT22;11956;53.184;8.578;2023-03-01T18:23:59;4.60;99.90
23556;DHT22;11956;53.184;8.578;2023-03-01T18:27:01;4.50;99.90
23556;DHT22;11956;53.184;8.578;2023-03-01T18:30:03;4.40;99.90
23556;DHT22;11956;53.184;8.578;2023-03-01T18:33:06;4.40;99.90
23556;DHT22;11956;53.184;8.578;2023-03-01T18:36:16;4.30;99.90
23556;DHT22;11956;53.184;8.578;2023-03-01T18:39:21;4.20;99.90
23556;DHT22;11956;53.184;8.578;2023-03-01T18:42:22;4.10;99.90
23556;DHT22;11956;53.184;8.578;2023-03-01T18:45:23;4.10;99.90
23556;DHT22;11956;53.184;8.578;2023-03-01T18:48:25;4.00;99.90
23556;DHT22;11956;53.184;8.578;2023-03-01T18:51:27;3.90;99.90
23556;DHT22;11956;53.184;8.578;2023-03-01T18:54:29;3.80;99.90
23556;DHT22;11956;53.184;8.578;2023-03-01T18:57:30;3.60;99.90
23556;DHT22;11956;53.184;8.578;2023-03-01T19:00:31;3.50;99.90
23556;DHT22;11956;53.184;8.578;2023-03-01T19:03:34;3.40;99.90
23556;DHT22;11956;53.184;8.578;2023-03-01T19:06:35;3.40;99.90
23556;DHT22;11956;53.184;8.578;2023-03-01T19:09:38;3.30;99.90
23556;DHT22;11956;53.184;8.578;2023-03-01T19:12:39;3.20;99.90
23556;DHT22;11956;53.184;8.578;2023-03-01T19:15:40;3.20;99.90
23556;DHT22;11956;53.184;8.578;2023-03-01T19:18:42;3.10;99.90
23556;DHT22;11956;53.184;8.578;2023-03-01T19:21:49;3.00;99.90
23556;DHT22;11956;53.184;8.578;2023-03-01T19:24:50;3.00;99.90
23556;DHT22;11956;53.184;8.578;2023-03-01T19:27:51;3.00;99.90
23556;DHT22;11956;53.184;8.578;2023-03-01T19:31:06;3.00;99.90
23556;DHT22;11956;53.184;8.578;2023-03-01T19:34:08;3.00;99.90
23556;DHT22;11956;53.184;8.578;2023-03-01T19:37:09;3.00;99.90
23556;DHT22;11956;53.184;8.578;2023-03-01T19:40:10;3.00;99.90
23556;DHT22;11956;53.184;8.578;2023-03-01T19:43:11;3.00;99.90
23556;DHT22;11956;53.184;8.578;2023-03-01T19:46:13;2.90;99.90
23556;DHT22;11956;53.184;8.578;2023-03-01T19:49:15;2.90;99.90
23556;DHT22;11956;53.184;8.578;2023-03-01T19:52:16;2.90;99.90
23556;DHT22;11956;53.184;8.578;2023-03-01T19:55:17;2.90;99.90
23556;DHT22;11956;53.184;8.578;2023-03-01T19:58:18;2.90;99.90
23556;DHT22;11956;53.184;8.578;2023-03-01T20:01:20;2.80;99.90
23556;DHT22;11956;53.184;8.578;2023-03-01T20:04:21;2.70;99.90
23556;DHT22;11956;53.184;8.578;2023-03-01T20:07:22;2.60;99.90
23556;DHT22;11956;53.184;8.578;2023-03-01T20:10:24;2.60;99.90
23556;DHT22;11956;53.184;8.578;2023-03-01T20:13:26;2.60;99.90
23556;DHT22;11956;53.184;8.578;2023-03-01T20:16:26;2.50;99.90
23556;DHT22;11956;53.184;8.578;2023-03-01T20:19:27;2.50;99.90
23556;DHT22;11956;53.184;8.578;2023-03-01T20:22:28;2.50;99.90
23556;DHT22;11956;53.184;8.578;2023-03-01T20:25:30;2.50;99.90
23556;DHT22;11956;53.184;8.578;2023-03-01T20:28:31;2.50;99.90
23556;DHT22;11956;53.184;8.578;2023-03-01T20:31:34;2.50;99.90
23556;DHT22;11956;53.184;8.578;2023-03-01T20:34:35;2.50;99.90
23556;DHT22;11956;53.184;8.578;2023-03-01T20:37:37;2.40;99.90
23556;DHT22;11956;53.184;8.578;2023-03-01T20:40:38;2.30;99.90
23556;DHT22;11956;53.184;8.578;2023-03-01T20:43:40;2.30;99.90
23556;DHT22;11956;53.184;8.578;2023-03-01T20:46:41;2.30;99.90
23556;DHT22;11956;53.184;8.578;2023-03-01T20:49:42;2.30;99.90
23556;DHT22;11956;53.184;8.578;2023-03-01T20:52:44;2.40;99.90
23556;DHT22;11956;53.184;8.578;2023-03-01T20:55:45;2.40;99.90
23556;DHT22;11956;53.184;8.578;2023-03-01T20:58:46;2.30;99.90